createdAt,value
2023-03-19T00:00:28.004Z,98783.94
2023-03-19T00:02:54.809Z,98783.47
2023-03-19T00:05:21.610Z,98784.72
2023-03-19T00:07:48.228Z,98791.88
2023-03-19T00:10:14.996Z,98790.69
2023-03-19T00:12:41.574Z,98800.31
2023-03-19T00:15:13.908Z,98794.25
2023-03-19T00:17:42.106Z,98793.91
2023-03-19T00:20:11.042Z,98793.69
2023-03-19T00:22:37.628Z,98800.44
2023-03-19T00:25:04.540Z,98799.69
2023-03-19T00:27:31.145Z,98804.72
2023-03-19T00:29:57.823Z,98806.97
2023-03-19T00:32:24.373Z,98810.59
2023-03-19T00:34:50.994Z,98803.13
2023-03-19T00:37:18.220Z,98801.03
2023-03-19T00:39:44.818Z,98802.72
2023-03-19T00:42:11.843Z,98806.56
2023-03-19T00:44:38.384Z,98790.59
2023-03-19T00:47:06.866Z,98787.19
2023-03-19T00:49:33.502Z,98785.81
2023-03-19T00:52:00.291Z,98782.75
2023-03-19T00:54:27.517Z,98791.88
2023-03-19T00:56:54.172Z,98787.16
2023-03-19T00:59:20.827Z,98785.81
2023-03-19T01:01:47.442Z,98777.13
2023-03-19T01:04:14.928Z,98787.16
2023-03-19T01:06:41.889Z,98781.25
2023-03-19T01:09:08.634Z,98786.72
2023-03-19T01:11:35.882Z,98788.69
2023-03-19T01:14:03.213Z,98789.44
2023-03-19T01:16:30.239Z,98786.13
2023-03-19T01:18:56.762Z,98783.16
2023-03-19T01:21:23.395Z,98791.63
2023-03-19T01:23:51.980Z,98798.03
2023-03-19T01:26:19.704Z,98800.91
2023-03-19T01:28:49.330Z,98803.22
2023-03-19T01:31:18.216Z,98806.88
2023-03-19T01:34:03.930Z,98806.53
2023-03-19T01:36:42.483Z,98804.88
2023-03-19T01:39:10.626Z,98810.00
2023-03-19T01:41:37.333Z,98810.56
2023-03-19T01:44:31.142Z,98804.59
2023-03-19T01:47:32.820Z,98806.97
2023-03-19T01:50:33.598Z,98803.25
2023-03-19T01:53:21.178Z,98799.59
2023-03-19T01:56:24.076Z,98807.41
2023-03-19T01:59:02.967Z,98803.75
2023-03-19T02:01:51.184Z,98803.16
2023-03-19T02:04:19.594Z,98798.63
2023-03-19T02:06:46.972Z,98797.59
2023-03-19T02:09:15.201Z,98794.25
2023-03-19T02:11:42.080Z,98799.50
2023-03-19T02:14:10.134Z,98801.25
2023-03-19T02:16:36.970Z,98799.66
2023-03-19T02:19:04.898Z,98803.09
2023-03-19T02:21:32.093Z,98809.44
2023-03-19T02:24:11.190Z,98806.75
2023-03-19T02:26:51.644Z,98809.38
2023-03-19T02:29:18.518Z,98798.75
2023-03-19T02:31:46.114Z,98803.22
2023-03-19T02:34:18.965Z,98799.16
2023-03-19T02:36:57.594Z,98794.75
2023-03-19T02:39:51.793Z,98793.59
2023-03-19T02:42:20.140Z,98791.81
2023-03-19T02:44:47.697Z,98788.78
2023-03-19T02:47:15.566Z,98788.50
2023-03-19T02:49:42.107Z,98790.56
2023-03-19T02:52:09.187Z,98797.28
2023-03-19T02:54:35.735Z,98798.38
2023-03-19T02:57:02.414Z,98797.22
2023-03-19T02:59:29.423Z,98803.44
2023-03-19T03:01:56.106Z,98797.84
2023-03-19T03:04:22.762Z,98798.00
2023-03-19T03:06:49.255Z,98798.94
2023-03-19T03:09:15.941Z,98794.25
2023-03-19T03:11:43.107Z,98799.91
2023-03-19T03:14:09.792Z,98798.22
2023-03-19T03:16:37.933Z,98798.22
2023-03-19T03:19:05.450Z,98806.75
2023-03-19T03:21:34.355Z,98808.50
2023-03-19T03:24:01.926Z,98808.44
2023-03-19T03:26:28.485Z,98810.13
2023-03-19T03:28:55.182Z,98815.94
2023-03-19T03:31:22.131Z,98823.25
2023-03-19T03:33:50.406Z,98816.31
2023-03-19T03:36:17.551Z,98820.59
2023-03-19T03:38:45.199Z,98820.66
2023-03-19T03:41:12.815Z,98821.31
2023-03-19T03:43:41.097Z,98818.81
2023-03-19T03:46:08.770Z,98823.91
2023-03-19T03:48:35.860Z,98818.94
2023-03-19T03:51:04.346Z,98816.59
2023-03-19T03:53:31.877Z,98827.00
2023-03-19T03:55:58.784Z,98822.59
2023-03-19T03:58:27.940Z,98825.50
2023-03-19T04:00:55.446Z,98830.94
2023-03-19T04:03:24.251Z,98826.53
2023-03-19T04:05:51.712Z,98829.19
2023-03-19T04:08:19.894Z,98832.50
2023-03-19T04:10:46.833Z,98827.19
2023-03-19T04:13:13.423Z,98826.25
2023-03-19T04:15:43.213Z,98828.97
2023-03-19T04:18:13.218Z,98827.34
2023-03-19T04:20:41.135Z,98829.81
2023-03-19T04:23:08.280Z,98825.38
2023-03-19T04:25:34.995Z,98826.41
2023-03-19T04:28:02.033Z,98828.06
2023-03-19T04:30:29.009Z,98826.91
2023-03-19T04:32:56.655Z,98818.66
2023-03-19T04:35:23.610Z,98827.16
2023-03-19T04:37:50.399Z,98832.41
2023-03-19T04:40:19.484Z,98830.63
2023-03-19T04:42:47.129Z,98829.66
2023-03-19T04:45:25.818Z,98836.72
2023-03-19T04:47:52.640Z,98835.69
2023-03-19T04:50:20.063Z,98834.34
2023-03-19T04:52:46.753Z,98833.97
2023-03-19T04:55:14.826Z,98836.19
2023-03-19T04:57:54.753Z,98840.88
2023-03-19T05:00:26.483Z,98837.44
2023-03-19T05:02:53.330Z,98843.59
2023-03-19T05:05:19.885Z,98841.84
2023-03-19T05:07:47.408Z,98857.88
2023-03-19T05:10:14.223Z,98854.03
2023-03-19T05:12:41.129Z,98852.13
2023-03-19T05:15:09.494Z,98854.75
2023-03-19T05:17:45.841Z,98858.19
2023-03-19T05:20:19.863Z,98860.28
2023-03-19T05:22:53.634Z,98854.88
2023-03-19T05:25:24.212Z,98863.06
2023-03-19T05:27:50.841Z,98862.84
2023-03-19T05:30:20.409Z,98860.63
2023-03-19T05:33:04.139Z,98870.81
2023-03-19T05:35:37.563Z,98875.41
2023-03-19T05:38:11.077Z,98874.69
2023-03-19T05:40:42.054Z,98877.97
2023-03-19T05:43:24.101Z,98886.91
2023-03-19T05:45:54.714Z,98886.59
2023-03-19T05:48:26.559Z,98888.19
2023-03-19T05:50:54.261Z,98892.38
2023-03-19T05:53:23.106Z,98894.84
2023-03-19T05:56:08.450Z,98900.25
2023-03-19T05:58:45.863Z,98897.19
2023-03-19T06:01:16.165Z,98908.06
2023-03-19T06:03:43.567Z,98908.53
2023-03-19T06:06:10.935Z,98909.94
2023-03-19T06:08:43.056Z,98919.31
2023-03-19T06:11:42.854Z,98920.19
2023-03-19T06:14:27.818Z,98933.88
2023-03-19T06:17:27.130Z,98921.03
2023-03-19T06:19:57.316Z,98918.41
2023-03-19T06:22:24.272Z,98921.94
2023-03-19T06:24:51.050Z,98925.84
2023-03-19T06:27:17.823Z,98927.38
2023-03-19T06:29:44.916Z,98933.97
2023-03-19T06:32:22.774Z,98931.69
2023-03-19T06:34:51.744Z,98937.53
2023-03-19T06:37:19.112Z,98937.19
2023-03-19T06:39:45.705Z,98928.97
2023-03-19T06:42:13.325Z,98929.47
2023-03-19T06:44:40.278Z,98930.88
2023-03-19T06:47:08.553Z,98941.78
2023-03-19T06:49:37.419Z,98936.38
2023-03-19T06:52:04.272Z,98940.47
2023-03-19T06:54:31.271Z,98940.97
2023-03-19T06:56:58.406Z,98939.94
2023-03-19T06:59:25.874Z,98942.13
2023-03-19T07:01:52.633Z,98950.81
2023-03-19T07:04:19.635Z,98947.59
2023-03-19T07:06:46.784Z,98944.03
2023-03-19T07:09:13.426Z,98946.53
2023-03-19T07:11:40.392Z,98954.22
2023-03-19T07:14:07.002Z,98956.16
2023-03-19T07:16:33.728Z,98958.31
2023-03-19T07:19:00.803Z,98958.31
2023-03-19T07:21:27.751Z,98962.66
2023-03-19T07:23:54.384Z,98967.47
2023-03-19T07:26:21.246Z,98971.25
2023-03-19T07:28:48.471Z,98967.63
2023-03-19T07:31:16.966Z,98972.50
2023-03-19T07:33:43.592Z,98978.19
2023-03-19T07:36:10.399Z,98977.34
2023-03-19T07:38:37.070Z,98986.38
2023-03-19T07:41:04.209Z,98978.06
2023-03-19T07:43:31.451Z,98981.69
2023-03-19T07:45:58.657Z,98971.25
2023-03-19T07:48:25.329Z,98977.22
2023-03-19T07:50:52.309Z,98981.97
2023-03-19T07:53:19.026Z,98972.81
2023-03-19T07:55:45.691Z,98978.16
2023-03-19T07:58:12.371Z,98977.78
2023-03-19T08:00:39.070Z,98978.88
2023-03-19T08:03:05.967Z,98978.41
2023-03-19T08:05:32.515Z,98976.84
2023-03-19T08:07:59.171Z,98984.03
2023-03-19T08:10:25.945Z,98987.84
2023-03-19T08:12:52.555Z,98985.47
2023-03-19T08:15:19.126Z,98994.78
2023-03-19T08:17:45.888Z,98987.81
2023-03-19T08:20:16.381Z,98987.41
2023-03-19T08:22:43.788Z,98988.81
2023-03-19T08:25:10.595Z,98990.19
2023-03-19T08:27:37.359Z,98985.56
2023-03-19T08:30:06.292Z,98986.19
2023-03-19T08:32:32.941Z,98987.63
2023-03-19T08:35:00.335Z,98989.59
2023-03-19T08:37:26.863Z,98996.13
2023-03-19T08:39:53.400Z,98993.50
2023-03-19T08:42:21.531Z,98996.13
2023-03-19T08:44:48.969Z,99003.97
2023-03-19T08:47:18.731Z,98994.38
2023-03-19T08:49:45.370Z,98993.00
2023-03-19T08:52:12.107Z,98995.38
2023-03-19T08:54:38.658Z,99003.03
2023-03-19T08:57:05.317Z,98992.34
2023-03-19T08:59:34.228Z,98987.91
2023-03-19T09:02:01.630Z,98991.81
2023-03-19T09:04:28.458Z,98991.72
2023-03-19T09:06:55.084Z,98986.56
2023-03-19T09:09:23.653Z,98995.47
2023-03-19T09:11:50.436Z,98993.41
2023-03-19T09:14:20.662Z,98989.78
2023-03-19T09:16:47.293Z,98993.13
2023-03-19T09:19:14.249Z,98991.78
2023-03-19T09:21:41.283Z,98994.63
2023-03-19T09:24:07.995Z,98994.66
2023-03-19T09:26:34.859Z,98997.19
2023-03-19T09:29:02.210Z,98991.75
2023-03-19T09:31:29.931Z,98995.88
2023-03-19T09:33:56.704Z,98995.41
2023-03-19T09:36:23.443Z,98995.97
2023-03-19T09:38:49.961Z,98991.56
2023-03-19T09:41:32.135Z,98999.16
2023-03-19T09:44:11.097Z,98995.66
2023-03-19T09:46:49.197Z,98993.28
2023-03-19T09:49:38.449Z,99000.09
2023-03-19T09:52:23.802Z,98996.56
2023-03-19T09:54:52.842Z,99006.09
2023-03-19T09:57:19.774Z,99000.66
2023-03-19T09:59:47.186Z,98997.53
2023-03-19T10:02:42.830Z,98993.66
2023-03-19T10:05:50.426Z,98998.69
2023-03-19T10:08:26.962Z,98989.88
2023-03-19T10:11:09.923Z,98990.34
2023-03-19T10:13:58.427Z,98998.97
2023-03-19T10:16:27.805Z,98997.06
2023-03-19T10:19:02.541Z,98998.13
2023-03-19T10:21:57.328Z,98997.38
2023-03-19T10:24:33.505Z,98997.81
2023-03-19T10:27:03.056Z,98986.81
2023-03-19T10:29:29.842Z,98990.53
2023-03-19T10:32:01.672Z,98985.25
2023-03-19T10:34:31.367Z,98996.19
2023-03-19T10:37:00.354Z,98988.63
2023-03-19T10:39:28.296Z,98984.66
2023-03-19T10:42:10.178Z,98990.22
2023-03-19T10:44:51.215Z,98984.34
2023-03-19T10:47:22.801Z,98992.28
2023-03-19T10:49:51.165Z,98988.63
2023-03-19T10:52:35.216Z,98988.88
2023-03-19T10:55:07.389Z,98983.78
2023-03-19T10:57:35.253Z,98988.03
2023-03-19T11:00:32.117Z,98982.75
2023-03-19T11:02:59.224Z,98988.38
2023-03-19T11:05:31.613Z,98989.69
2023-03-19T11:08:05.654Z,98980.81
2023-03-19T11:10:36.299Z,98978.94
2023-03-19T11:13:24.786Z,98985.31
2023-03-19T11:15:58.512Z,98979.28
2023-03-19T11:22:23.201Z,98973.94
2023-03-19T11:25:02.533Z,98967.84
2023-03-19T11:27:35.029Z,98984.66
2023-03-19T11:30:04.087Z,98980.53
2023-03-19T11:32:56.827Z,98981.31
2023-03-19T11:35:38.026Z,98977.88
2023-03-19T11:38:19.618Z,98971.47
2023-03-19T11:41:02.199Z,98970.97
2023-03-19T11:43:46.578Z,98967.16
2023-03-19T11:46:31.823Z,98970.09
2023-03-19T11:48:58.568Z,98964.09
2023-03-19T11:51:37.884Z,98962.69
2023-03-19T11:54:13.566Z,98967.97
2023-03-19T11:56:47.407Z,98963.84
2023-03-19T11:59:29.420Z,98969.75
2023-03-19T12:02:20.868Z,98963.50
2023-03-19T12:04:53.520Z,98961.78
2023-03-19T12:07:47.029Z,98959.84
2023-03-19T12:10:30.166Z,98959.78
2023-03-19T12:13:05.945Z,98958.41
2023-03-19T12:15:52.718Z,98962.50
2023-03-19T12:18:41.897Z,98959.19
2023-03-19T12:21:26.993Z,98956.00
2023-03-19T12:24:04.169Z,98951.13
2023-03-19T12:26:52.729Z,98948.63
2023-03-19T12:29:46.151Z,98947.91
2023-03-19T12:32:22.606Z,98946.50
2023-03-19T12:34:55.785Z,98950.09
2023-03-19T12:37:31.226Z,98961.09
2023-03-19T12:40:15.042Z,98946.44
2023-03-19T12:42:42.106Z,98940.38
2023-03-19T12:45:29.085Z,98929.09
2023-03-19T12:48:02.366Z,98935.38
2023-03-19T12:50:32.413Z,98942.09
2023-03-19T12:53:02.160Z,98928.22
2023-03-19T12:55:42.964Z,98927.44
2023-03-19T12:58:20.423Z,98929.16
2023-03-19T13:00:59.682Z,98931.94
2023-03-19T13:03:52.439Z,98918.66
2023-03-19T13:06:35.329Z,98918.19
2023-03-19T13:09:09.877Z,98924.91
2023-03-19T13:11:59.975Z,98915.75
2023-03-19T13:15:19.810Z,98911.03
2023-03-19T13:17:55.588Z,98918.94
2023-03-19T13:20:46.994Z,98922.84
2023-03-19T13:23:21.524Z,98926.84
2023-03-19T13:25:50.537Z,98927.69
2023-03-19T13:28:38.713Z,98925.59
2023-03-19T13:31:08.276Z,98918.56
2023-03-19T13:33:37.552Z,98917.91
2023-03-19T13:36:15.060Z,98927.25
2023-03-19T13:38:47.780Z,98920.88
2023-03-19T13:41:42.497Z,98929.50
2023-03-19T13:44:18.461Z,98919.59
2023-03-19T13:46:45.456Z,98920.56
2023-03-19T13:49:33.562Z,98926.53
2023-03-19T13:52:21.972Z,98923.88
2023-03-19T13:54:53.703Z,98905.41
2023-03-19T13:57:22.699Z,98911.28
2023-03-19T13:59:50.856Z,98915.91
2023-03-19T14:02:26.373Z,98916.06
2023-03-19T14:05:02.802Z,98920.13
2023-03-19T14:07:40.350Z,98917.97
2023-03-19T14:10:17.486Z,98915.44
2023-03-19T14:12:45.231Z,98920.25
2023-03-19T14:15:27.873Z,98917.97
2023-03-19T14:17:58.551Z,98917.59
2023-03-19T14:20:36.996Z,98913.28
2023-03-19T14:23:11.360Z,98910.81
2023-03-19T14:26:10.320Z,98918.03
2023-03-19T14:28:49.592Z,98911.16
2023-03-19T14:31:38.572Z,98918.91
2023-03-19T14:34:08.050Z,98913.34
2023-03-19T14:36:39.036Z,98915.53
2023-03-19T14:39:22.501Z,98922.22
2023-03-19T14:41:56.647Z,98928.22
2023-03-19T14:44:54.329Z,98926.72
2023-03-19T14:47:50.341Z,98927.06
2023-03-19T14:50:33.174Z,98925.63
2023-03-19T14:53:11.073Z,98932.78
2023-03-19T14:55:38.486Z,98933.22
2023-03-19T14:58:05.326Z,98930.34
2023-03-19T15:00:58.444Z,98929.88
2023-03-19T15:03:34.638Z,98930.59
2023-03-19T15:06:03.804Z,98929.03
2023-03-19T15:08:33.384Z,98931.38
2023-03-19T15:11:16.298Z,98931.91
2023-03-19T15:14:28.408Z,98926.16
2023-03-19T15:17:06.236Z,98926.47
2023-03-19T15:19:35.722Z,98934.06
2023-03-19T15:22:11.461Z,98929.66
2023-03-19T15:24:38.317Z,98936.28
2023-03-19T15:27:25.596Z,98935.25
2023-03-19T15:29:53.660Z,98939.00
2023-03-19T15:33:09.068Z,98934.66
2023-03-19T15:35:31.906Z,98941.09
2023-03-19T15:38:01.850Z,98943.16
2023-03-19T15:40:31.575Z,98934.28
2023-03-19T15:43:02.228Z,98941.81
2023-03-19T15:45:31.466Z,98942.84
2023-03-19T15:48:04.832Z,98949.16
2023-03-19T15:50:36.219Z,98944.81
2023-03-19T15:53:10.658Z,98941.44
2023-03-19T15:55:38.713Z,98946.66
2023-03-19T15:58:15.566Z,98945.16
2023-03-19T16:00:43.165Z,98953.28
2023-03-19T16:03:17.572Z,98953.59
2023-03-19T16:05:44.343Z,98941.34
2023-03-19T16:08:22.170Z,98940.13
2023-03-19T16:10:48.922Z,98943.50
2023-03-19T16:13:37.856Z,98940.16
2023-03-19T16:16:17.623Z,98949.38
2023-03-19T16:18:53.121Z,98948.97
2023-03-19T16:21:28.277Z,98954.44
2023-03-19T16:23:59.172Z,98953.00
2023-03-19T16:26:39.684Z,98963.41
2023-03-19T16:29:19.416Z,98969.38
2023-03-19T16:31:52.908Z,98962.69
2023-03-19T16:34:31.873Z,98970.81
2023-03-19T16:36:59.149Z,98976.19
2023-03-19T16:39:33.585Z,98984.59
2023-03-19T16:42:09.097Z,98981.44
2023-03-19T16:44:39.841Z,98992.47
2023-03-19T16:47:14.649Z,98992.09
2023-03-19T16:49:41.206Z,98992.06
2023-03-19T16:52:16.319Z,98998.91
2023-03-19T16:54:43.819Z,98994.13
2023-03-19T16:57:11.819Z,98993.81
2023-03-19T16:59:38.640Z,98995.66
2023-03-19T17:02:17.744Z,98997.28
2023-03-19T17:04:45.413Z,99004.88
2023-03-19T17:07:12.601Z,99004.59
2023-03-19T17:09:39.262Z,99010.94
2023-03-19T17:12:08.439Z,99014.66
2023-03-19T17:14:35.624Z,99013.16
2023-03-19T17:17:03.103Z,99014.78
2023-03-19T17:19:35.914Z,99020.75
2023-03-19T17:22:02.592Z,99023.59
2023-03-19T17:24:34.821Z,99026.13
2023-03-19T17:27:03.946Z,99030.28
2023-03-19T17:29:31.624Z,99036.69
2023-03-19T17:32:01.851Z,99045.06
2023-03-19T17:34:33.516Z,99043.53
2023-03-19T17:37:02.011Z,99057.44
2023-03-19T17:39:32.824Z,99058.00
2023-03-19T17:41:59.614Z,99059.50
2023-03-19T17:44:27.913Z,99063.81
2023-03-19T17:46:55.955Z,99065.25
2023-03-19T17:49:37.542Z,99067.75
2023-03-19T17:52:07.047Z,99074.72
2023-03-19T17:54:33.591Z,99077.03
2023-03-19T17:57:44.729Z,99082.25
2023-03-19T18:00:12.682Z,99077.72
2023-03-19T18:02:41.180Z,99075.47
2023-03-19T18:05:28.147Z,99079.31
2023-03-19T18:07:55.754Z,99085.09
2023-03-19T18:10:27.475Z,99085.13
2023-03-19T18:12:54.786Z,99087.66
2023-03-19T18:15:22.583Z,99097.28
2023-03-19T18:17:53.106Z,99091.78
2023-03-19T18:20:22.708Z,99095.50
2023-03-19T18:22:49.552Z,99093.97
2023-03-19T18:25:21.368Z,99103.19
2023-03-19T18:27:48.719Z,99114.84
2023-03-19T18:30:18.667Z,99115.50
2023-03-19T18:32:47.880Z,99115.81
2023-03-19T18:35:17.154Z,99122.16
2023-03-19T18:37:49.749Z,99121.16
2023-03-19T18:40:23.566Z,99122.84
2023-03-19T18:42:50.428Z,99126.06
2023-03-19T18:45:18.459Z,99124.38
2023-03-19T18:47:47.369Z,99125.41
2023-03-19T18:50:24.780Z,99138.59
2023-03-19T18:52:53.332Z,99132.03
2023-03-19T18:55:22.077Z,99143.38
2023-03-19T18:57:53.810Z,99138.09
2023-03-19T19:00:31.613Z,99136.25
2023-03-19T19:03:00.531Z,99141.38
2023-03-19T19:05:29.847Z,99138.47
2023-03-19T19:07:58.138Z,99136.03
2023-03-19T19:10:25.988Z,99137.81
2023-03-19T19:12:55.085Z,99152.34
2023-03-19T19:15:31.246Z,99145.44
2023-03-19T19:17:58.863Z,99149.94
2023-03-19T19:20:28.275Z,99147.84
2023-03-19T19:22:55.834Z,99146.88
2023-03-19T19:25:25.856Z,99153.13
2023-03-19T19:28:00.843Z,99150.03
2023-03-19T19:30:28.996Z,99149.88
2023-03-19T19:32:57.153Z,99163.94
2023-03-19T19:35:26.864Z,99160.28
2023-03-19T19:37:55.405Z,99159.72
2023-03-19T19:40:29.186Z,99159.34
2023-03-19T19:42:56.136Z,99157.69
2023-03-19T19:45:33.149Z,99163.88
2023-03-19T19:48:00.742Z,99165.47
2023-03-19T19:50:28.016Z,99175.16
2023-03-19T19:52:56.562Z,99176.91
2023-03-19T19:55:25.573Z,99178.81
2023-03-19T19:57:54.421Z,99187.69
2023-03-19T20:00:29.842Z,99182.63
2023-03-19T20:02:57.879Z,99187.94
2023-03-19T20:05:33.483Z,99184.31
2023-03-19T20:08:01.660Z,99180.00
2023-03-19T20:10:31.022Z,99188.31
2023-03-19T20:13:01.401Z,99194.34
2023-03-19T20:15:36.073Z,99205.06
2023-03-19T20:18:04.964Z,99200.44
2023-03-19T20:20:33.277Z,99210.84
2023-03-19T20:23:04.192Z,99207.41
2023-03-19T20:25:35.038Z,99209.53
2023-03-19T20:28:02.404Z,99210.19
2023-03-19T20:30:31.998Z,99208.97
2023-03-19T20:33:00.863Z,99209.19
2023-03-19T20:35:33.973Z,99207.22
2023-03-19T20:38:01.993Z,99210.44
2023-03-19T20:40:32.637Z,99209.47
2023-03-19T20:43:00.832Z,99212.06
2023-03-19T20:45:45.983Z,99215.34
2023-03-19T20:48:16.578Z,99225.28
2023-03-19T20:50:44.265Z,99223.25
2023-03-19T20:53:11.269Z,99225.97
2023-03-19T20:55:39.944Z,99231.41
2023-03-19T20:58:16.435Z,99237.28
2023-03-19T21:00:43.590Z,99236.38
2023-03-19T21:03:17.955Z,99235.78
2023-03-19T21:05:45.189Z,99236.34
2023-03-19T21:08:19.614Z,99247.44
2023-03-19T21:10:49.243Z,99246.38
2023-03-19T21:13:18.038Z,99245.72
2023-03-19T21:15:46.388Z,99244.63
2023-03-19T21:18:13.209Z,99244.97
2023-03-19T21:20:42.485Z,99249.13
2023-03-19T21:23:31.700Z,99248.16
2023-03-19T21:25:59.996Z,99248.84
2023-03-19T21:28:26.626Z,99253.91
2023-03-19T21:30:53.435Z,99254.19
2023-03-19T21:33:24.676Z,99252.03
2023-03-19T21:35:52.875Z,99256.97
2023-03-19T21:38:19.867Z,99254.38
2023-03-19T21:40:46.950Z,99254.88
2023-03-19T21:43:20.726Z,99266.16
2023-03-19T21:45:49.421Z,99265.63
2023-03-19T21:48:32.977Z,99266.66
2023-03-19T21:51:01.463Z,99270.84
2023-03-19T21:53:28.903Z,99268.44
2023-03-19T21:55:58.449Z,99272.47
2023-03-19T21:58:31.318Z,99267.56
2023-03-19T22:00:58.661Z,99264.44
2023-03-19T22:03:25.770Z,99261.41
2023-03-19T22:05:52.640Z,99261.53
2023-03-19T22:08:20.885Z,99269.19
2023-03-19T22:10:55.331Z,99259.66
2023-03-19T22:13:25.968Z,99258.69
2023-03-19T22:15:54.409Z,99262.72
2023-03-19T22:18:21.672Z,99261.59
2023-03-19T22:20:50.183Z,99268.41
2023-03-19T22:23:18.240Z,99271.03
2023-03-19T22:25:47.757Z,99264.97
2023-03-19T22:28:30.627Z,99269.38
2023-03-19T22:30:57.718Z,99269.13
2023-03-19T22:33:26.511Z,99271.13
2023-03-19T22:35:53.937Z,99273.75
2023-03-19T22:38:22.691Z,99274.53
2023-03-19T22:40:52.721Z,99272.16
2023-03-19T22:43:30.264Z,99268.28
2023-03-19T22:46:02.310Z,99265.47
2023-03-19T22:48:28.999Z,99264.84
2023-03-19T22:50:55.785Z,99265.97
2023-03-19T22:53:28.081Z,99265.41
2023-03-19T22:55:55.581Z,99274.25
2023-03-19T22:58:23.197Z,99266.44
2023-03-19T23:00:50.698Z,99264.53
2023-03-19T23:03:26.037Z,99263.84
2023-03-19T23:05:56.869Z,99266.28
2023-03-19T23:08:23.450Z,99261.81
2023-03-19T23:10:51.391Z,99253.25
2023-03-19T23:13:18.059Z,99256.75
2023-03-19T23:15:45.620Z,99257.03
2023-03-19T23:18:19.274Z,99256.34
2023-03-19T23:20:47.064Z,99252.44
2023-03-19T23:23:16.380Z,99248.91
2023-03-19T23:25:44.359Z,99249.56
2023-03-19T23:28:24.612Z,99248.38
2023-03-19T23:30:51.992Z,99242.06
2023-03-19T23:33:19.926Z,99246.25
2023-03-19T23:35:47.350Z,99245.91
2023-03-19T23:38:15.079Z,99238.03
2023-03-19T23:40:46.513Z,99240.66
2023-03-19T23:43:27.252Z,99243.41
2023-03-19T23:45:55.146Z,99245.88
2023-03-19T23:48:31.813Z,99248.78
2023-03-19T23:50:58.468Z,99241.69
2023-03-19T23:53:27.321Z,99244.41
2023-03-19T23:56:09.192Z,99236.19
2023-03-19T23:58:42.652Z,99244.97
